createdAt,value
2022-11-29T00:01:35.240Z,25.48
2022-11-29T00:04:03.451Z,30.17
2022-11-29T00:06:32.349Z,32.88
2022-11-29T00:09:06.359Z,34.75
2022-11-29T00:11:53.932Z,30.33
2022-11-29T00:14:22.227Z,28.75
2022-11-29T00:16:54.682Z,35.88
2022-11-29T00:19:21.729Z,21.55
2022-11-29T00:21:48.614Z,21.60
2022-11-29T00:24:15.555Z,30.30
2022-11-29T00:26:42.551Z,19.13
2022-11-29T00:29:12.592Z,26.00
2022-11-29T00:31:39.897Z,25.35
2022-11-29T00:34:07.002Z,25.33
2022-11-29T00:36:35.531Z,31.10
2022-11-29T00:39:04.243Z,26.63
2022-11-29T00:41:31.088Z,26.58
2022-11-29T00:43:58.135Z,29.48
2022-11-29T00:46:25.368Z,36.38
2022-11-29T00:48:52.162Z,39.97
2022-11-29T00:51:19.257Z,19.92
2022-11-29T00:53:47.034Z,29.50
2022-11-29T00:56:14.168Z,20.92
2022-11-29T00:58:43.477Z,48.15
2022-11-29T01:01:11.587Z,36.92
2022-11-29T01:03:38.571Z,20.45
2022-11-29T01:06:08.876Z,12.27
2022-11-29T01:08:36.853Z,13.10
2022-11-29T01:11:11.480Z,12.13
2022-11-29T01:13:38.968Z,11.90
2022-11-29T01:16:06.853Z,11.75
2022-11-29T01:18:35.137Z,14.82
2022-11-29T01:21:06.632Z,11.43
2022-11-29T01:23:34.399Z,11.13
2022-11-29T01:26:05.321Z,12.07
2022-11-29T01:28:32.793Z,12.60
2022-11-29T01:30:59.615Z,10.32
2022-11-29T01:33:26.480Z,10.70
2022-11-29T01:35:54.633Z,11.77
2022-11-29T01:38:22.226Z,11.85
2022-11-29T01:41:06.174Z,9.57
2022-11-29T01:43:33.948Z,17.63
2022-11-29T01:46:00.911Z,9.32
2022-11-29T01:48:32.635Z,9.50
2022-11-29T01:51:01.300Z,9.18
2022-11-29T01:53:28.513Z,15.15
2022-11-29T01:55:59.499Z,7.65
2022-11-29T01:58:28.067Z,10.57
2022-11-29T02:00:55.986Z,10.27
2022-11-29T02:03:22.973Z,8.30
2022-11-29T02:05:52.062Z,9.40
2022-11-29T02:08:28.317Z,8.57
2022-11-29T02:11:32.678Z,9.05
2022-11-29T02:14:08.455Z,8.55
2022-11-29T02:17:03.826Z,6.95
2022-11-29T02:19:45.565Z,8.10
2022-11-29T02:22:33.639Z,8.40
2022-11-29T02:25:18.674Z,8.05
2022-11-29T02:28:12.414Z,7.95
2022-11-29T02:30:57.657Z,9.15
2022-11-29T02:33:46.548Z,8.00
2022-11-29T02:36:16.697Z,8.18
2022-11-29T02:39:08.090Z,6.53
2022-11-29T02:42:11.442Z,7.00
2022-11-29T02:45:31.009Z,7.50
2022-11-29T02:48:13.040Z,7.70
2022-11-29T02:51:08.036Z,7.07
2022-11-29T02:53:44.120Z,16.75
2022-11-29T02:56:34.127Z,9.13
2022-11-29T02:59:32.754Z,17.88
2022-11-29T03:02:18.885Z,7.05
2022-11-29T03:04:58.847Z,6.50
2022-11-29T03:10:54.207Z,8.27
2022-11-29T03:13:28.032Z,6.28
2022-11-29T03:16:00.421Z,6.53
2022-11-29T03:18:45.439Z,6.70
2022-11-29T03:21:48.570Z,5.30
2022-11-29T03:24:25.876Z,6.15
2022-11-29T03:27:01.930Z,5.47
2022-11-29T03:30:03.776Z,8.35
2022-11-29T03:32:38.390Z,6.80
2022-11-29T03:35:17.748Z,8.05
2022-11-29T03:38:09.116Z,6.32
2022-11-29T03:40:48.051Z,6.10
2022-11-29T03:43:26.538Z,16.97
2022-11-29T03:46:04.826Z,7.95
2022-11-29T03:48:48.207Z,6.65
2022-11-29T03:51:26.428Z,6.40
2022-11-29T03:54:07.873Z,7.03
2022-11-29T03:56:37.296Z,6.65
2022-11-29T03:59:17.096Z,8.80
2022-11-29T04:02:19.959Z,6.75
2022-11-29T04:04:52.896Z,7.45
2022-11-29T04:07:33.390Z,8.20
2022-11-29T04:10:19.202Z,6.88
2022-11-29T04:12:46.348Z,6.10
2022-11-29T04:15:51.513Z,7.45
2022-11-29T04:18:56.072Z,7.68
2022-11-29T04:21:50.564Z,6.13
2022-11-29T04:24:59.629Z,6.80
2022-11-29T04:27:51.003Z,6.85
2022-11-29T04:30:22.308Z,6.65
2022-11-29T04:33:01.044Z,6.15
2022-11-29T04:35:55.596Z,23.55
2022-11-29T04:39:01.416Z,6.82
2022-11-29T04:41:50.555Z,8.75
2022-11-29T04:45:04.876Z,18.67
2022-11-29T04:47:59.122Z,14.23
2022-11-29T04:50:51.843Z,7.82
2022-11-29T04:53:47.831Z,9.00
2022-11-29T04:56:50.091Z,8.73
2022-11-29T04:59:42.603Z,8.60
2022-11-29T05:02:28.025Z,12.43
2022-11-29T05:05:22.623Z,14.30
2022-11-29T05:08:17.796Z,9.15
2022-11-29T05:11:14.286Z,28.42
2022-11-29T05:14:02.332Z,9.82
2022-11-29T05:16:36.475Z,17.15
2022-11-29T05:19:25.157Z,24.17
2022-11-29T05:22:32.921Z,20.58
2022-11-29T05:25:24.947Z,27.15
2022-11-29T05:28:15.153Z,37.15
2022-11-29T05:31:08.197Z,19.25
2022-11-29T05:33:54.805Z,20.77
2022-11-29T05:36:41.863Z,30.05
2022-11-29T05:39:38.296Z,55.10
2022-11-29T05:42:11.128Z,88.18
2022-11-29T05:44:45.559Z,84.93
2022-11-29T05:47:18.677Z,77.72
2022-11-29T05:49:51.293Z,54.17
2022-11-29T05:52:38.132Z,79.78
2022-11-29T05:55:14.318Z,49.28
2022-11-29T05:58:00.255Z,69.95
2022-11-29T06:00:34.144Z,71.28
2022-11-29T06:03:14.478Z,68.78
2022-11-29T06:06:08.102Z,52.15
2022-11-29T06:09:16.661Z,54.03
2022-11-29T06:11:54.853Z,43.60
2022-11-29T06:14:25.576Z,79.45
2022-11-29T06:17:38.995Z,48.55
2022-11-29T06:20:27.255Z,39.78
2022-11-29T06:23:04.667Z,90.60
2022-11-29T06:25:48.397Z,74.20
2022-11-29T06:28:27.349Z,68.18
2022-11-29T06:31:27.448Z,81.87
2022-11-29T06:34:13.646Z,75.72
2022-11-29T06:37:05.509Z,95.35
2022-11-29T06:39:32.604Z,67.65
2022-11-29T06:42:00.587Z,47.83
2022-11-29T06:44:28.742Z,42.45
2022-11-29T06:47:02.703Z,55.15
2022-11-29T06:49:43.793Z,68.95
2022-11-29T06:52:22.480Z,110.25
2022-11-29T06:55:21.078Z,122.18
2022-11-29T06:57:57.155Z,49.72
2022-11-29T07:00:28.181Z,87.53
2022-11-29T07:03:28.489Z,116.75
2022-11-29T07:05:55.954Z,116.07
2022-11-29T07:08:25.330Z,111.82
2022-11-29T07:10:55.504Z,150.10
2022-11-29T07:13:22.969Z,117.20
2022-11-29T07:16:16.686Z,81.07
2022-11-29T07:19:03.243Z,53.72
2022-11-29T07:21:39.776Z,20.30
2022-11-29T07:24:17.069Z,64.13
2022-11-29T07:26:59.286Z,105.78
2022-11-29T07:29:35.279Z,56.22
2022-11-29T07:32:13.749Z,42.95
2022-11-29T07:35:21.515Z,161.55
2022-11-29T07:37:48.436Z,129.95
2022-11-29T07:40:22.608Z,187.40
2022-11-29T07:42:56.346Z,68.75
2022-11-29T07:45:36.148Z,206.18
2022-11-29T07:48:03.414Z,117.78
2022-11-29T07:50:31.253Z,323.85
2022-11-29T07:52:59.067Z,194.93
2022-11-29T07:55:26.904Z,343.08
2022-11-29T07:57:54.020Z,256.80
2022-11-29T08:00:21.406Z,219.90
2022-11-29T08:02:49.171Z,406.42
2022-11-29T08:05:16.637Z,916.42
2022-11-29T08:07:43.596Z,672.53
2022-11-29T08:10:13.609Z,281.20
2022-11-29T08:12:58.193Z,224.88
2022-11-29T08:15:25.862Z,147.93
2022-11-29T08:17:53.421Z,140.15
2022-11-29T08:20:20.738Z,128.40
2022-11-29T08:22:58.532Z,36.67
2022-11-29T08:25:26.927Z,128.65
2022-11-29T08:27:54.709Z,157.35
2022-11-29T08:30:22.756Z,120.47
2022-11-29T08:32:51.789Z,45.53
2022-11-29T08:35:20.188Z,97.28
2022-11-29T08:37:47.168Z,111.07
2022-11-29T08:40:14.733Z,19.50
2022-11-29T08:42:42.015Z,327.15
2022-11-29T08:45:10.055Z,217.65
2022-11-29T08:47:38.108Z,150.38
2022-11-29T08:50:17.419Z,91.57
2022-11-29T08:53:06.204Z,53.67
2022-11-29T08:55:40.451Z,76.05
2022-11-29T08:58:10.023Z,77.35
2022-11-29T09:00:37.518Z,70.40
2022-11-29T09:03:25.327Z,48.75
2022-11-29T09:05:52.768Z,18.17
2022-11-29T09:08:20.137Z,55.72
2022-11-29T09:10:48.352Z,18.52
2022-11-29T09:13:15.222Z,29.33
2022-11-29T09:15:43.300Z,66.82
2022-11-29T09:18:10.387Z,32.28
2022-11-29T09:20:37.214Z,39.22
2022-11-29T09:23:04.616Z,41.05
2022-11-29T09:25:31.929Z,44.72
2022-11-29T09:28:01.806Z,58.83
2022-11-29T09:33:05.165Z,46.58
2022-11-29T09:35:32.993Z,61.80
2022-11-29T09:38:00.247Z,52.00
2022-11-29T09:40:39.973Z,64.82
2022-11-29T09:43:17.450Z,60.80
2022-11-29T09:45:48.106Z,148.38
2022-11-29T09:48:20.919Z,199.93
2022-11-29T09:50:59.484Z,59.88
2022-11-29T09:53:43.657Z,83.90
2022-11-29T09:56:26.902Z,112.30
2022-11-29T09:59:04.767Z,65.53
2022-11-29T10:01:46.388Z,98.90
2022-11-29T10:04:22.726Z,160.63
2022-11-29T10:07:04.341Z,50.97
2022-11-29T10:09:43.304Z,249.70
2022-11-29T10:12:39.763Z,269.90
2022-11-29T10:15:23.888Z,413.50
2022-11-29T10:18:10.986Z,118.03
2022-11-29T10:20:44.679Z,63.10
2022-11-29T10:23:23.524Z,80.82
2022-11-29T10:25:53.077Z,87.63
2022-11-29T10:28:25.965Z,131.98
2022-11-29T10:31:00.296Z,130.38
2022-11-29T10:33:32.808Z,242.52
2022-11-29T10:36:04.381Z,86.35
2022-11-29T10:38:31.940Z,86.95
2022-11-29T10:41:08.998Z,104.40
2022-11-29T10:43:37.410Z,134.48
2022-11-29T10:46:06.448Z,124.20
2022-11-29T10:48:34.719Z,52.77
2022-11-29T10:51:02.132Z,190.95
2022-11-29T10:53:36.520Z,47.35
2022-11-29T10:56:19.748Z,84.55
2022-11-29T10:58:54.678Z,93.18
2022-11-29T11:01:21.691Z,136.98
2022-11-29T11:03:53.627Z,141.18
2022-11-29T11:06:27.726Z,154.07
2022-11-29T11:09:17.856Z,62.25
2022-11-29T11:11:51.927Z,139.02
2022-11-29T11:14:18.571Z,55.17
2022-11-29T11:16:45.379Z,166.20
2022-11-29T11:19:54.777Z,108.55
2022-11-29T11:22:23.804Z,89.18
2022-11-29T11:25:26.115Z,80.77
2022-11-29T11:27:53.668Z,75.07
2022-11-29T11:30:29.147Z,105.93
2022-11-29T11:33:14.997Z,103.38
2022-11-29T11:35:42.129Z,102.65
2022-11-29T11:38:17.168Z,51.47
2022-11-29T11:40:45.042Z,80.68
2022-11-29T11:43:20.611Z,105.93
2022-11-29T11:45:54.529Z,63.72
2022-11-29T11:48:21.992Z,63.03
2022-11-29T11:50:52.841Z,70.35
2022-11-29T11:53:36.466Z,154.38
2022-11-29T11:56:11.833Z,110.95
2022-11-29T11:58:51.657Z,73.95
2022-11-29T12:03:50.774Z,98.95
2022-11-29T12:06:23.355Z,123.05
2022-11-29T12:08:53.715Z,88.95
2022-11-29T12:11:22.018Z,100.50
2022-11-29T12:13:53.827Z,51.00
2022-11-29T12:16:29.467Z,65.50
2022-11-29T12:19:12.124Z,50.38
2022-11-29T12:21:43.499Z,17.30
2022-11-29T12:24:22.014Z,45.83
2022-11-29T12:26:57.145Z,91.05
2022-11-29T12:29:32.207Z,78.68
2022-11-29T12:32:28.649Z,29.48
2022-11-29T12:35:32.416Z,75.78
2022-11-29T12:38:06.284Z,45.17
2022-11-29T12:40:58.022Z,61.95
2022-11-29T12:43:52.777Z,96.78
2022-11-29T12:46:28.188Z,52.75
2022-11-29T12:49:14.785Z,54.70
2022-11-29T12:52:03.528Z,10.63
2022-11-29T12:54:40.939Z,23.50
2022-11-29T12:57:32.881Z,24.58
2022-11-29T13:00:07.933Z,17.30
2022-11-29T13:03:00.116Z,29.63
2022-11-29T13:05:42.212Z,29.23
2022-11-29T13:08:24.213Z,33.30
2022-11-29T13:11:16.156Z,115.05
2022-11-29T13:13:48.416Z,27.23
2022-11-29T13:16:35.536Z,29.40
2022-11-29T13:19:39.204Z,89.30
2022-11-29T13:22:16.954Z,46.53
2022-11-29T13:24:47.225Z,166.43
2022-11-29T13:27:28.512Z,46.05
2022-11-29T13:29:56.119Z,46.05
2022-11-29T13:32:52.108Z,19.38
2022-11-29T13:35:19.087Z,25.65
2022-11-29T13:37:54.959Z,67.75
2022-11-29T13:40:31.003Z,18.60
2022-11-29T13:43:09.019Z,15.90
2022-11-29T13:45:44.887Z,17.02
2022-11-29T13:48:43.900Z,21.92
2022-11-29T13:51:25.796Z,11.50
2022-11-29T13:53:55.696Z,12.18
2022-11-29T13:56:48.837Z,44.35
2022-11-29T13:59:42.838Z,20.20
2022-11-29T14:02:31.578Z,17.55
2022-11-29T14:04:58.812Z,25.23
2022-11-29T14:07:25.667Z,20.88
2022-11-29T14:10:04.955Z,35.40
2022-11-29T14:12:48.155Z,30.65
2022-11-29T14:15:31.988Z,25.45
2022-11-29T14:18:03.121Z,27.77
2022-11-29T14:20:30.025Z,38.08
2022-11-29T14:23:05.936Z,24.92
2022-11-29T14:26:02.341Z,26.60
2022-11-29T14:28:32.671Z,24.80
2022-11-29T14:31:03.655Z,18.90
2022-11-29T14:33:50.900Z,32.35
2022-11-29T14:36:27.372Z,28.33
2022-11-29T14:38:59.290Z,28.58
2022-11-29T14:41:51.187Z,37.28
2022-11-29T14:44:28.279Z,44.53
2022-11-29T14:47:14.118Z,32.58
2022-11-29T14:49:44.439Z,23.13
2022-11-29T14:52:14.513Z,88.25
2022-11-29T14:54:59.174Z,18.13
2022-11-29T14:57:45.107Z,41.75
2022-11-29T15:00:13.749Z,40.78
2022-11-29T15:02:49.994Z,36.35
2022-11-29T15:05:24.481Z,46.55
2022-11-29T15:08:13.482Z,28.25
2022-11-29T15:10:54.106Z,31.10
2022-11-29T15:13:31.229Z,29.65
2022-11-29T15:16:25.708Z,58.17
2022-11-29T15:19:20.357Z,46.33
2022-11-29T15:22:07.332Z,36.17
2022-11-29T15:24:54.291Z,34.03
2022-11-29T15:27:21.971Z,47.08
2022-11-29T15:29:49.272Z,48.85
2022-11-29T15:32:25.783Z,35.88
2022-11-29T15:34:55.448Z,91.55
2022-11-29T15:37:34.474Z,38.97
2022-11-29T15:40:13.542Z,30.35
2022-11-29T15:42:50.569Z,52.58
2022-11-29T15:45:27.788Z,48.15
2022-11-29T15:48:09.440Z,39.60
2022-11-29T15:50:36.760Z,31.23
2022-11-29T15:53:07.058Z,39.30
2022-11-29T15:55:35.636Z,36.05
2022-11-29T15:58:08.683Z,39.75
2022-11-29T16:00:35.864Z,52.47
2022-11-29T16:03:05.397Z,69.75
2022-11-29T16:05:35.736Z,48.00
2022-11-29T16:08:14.135Z,68.57
2022-11-29T16:10:47.387Z,71.47
2022-11-29T16:13:34.771Z,146.40
2022-11-29T16:16:16.230Z,126.78
2022-11-29T16:18:45.250Z,148.40
2022-11-29T16:21:30.122Z,174.67
2022-11-29T16:23:58.142Z,246.38
2022-11-29T16:26:36.664Z,164.38
2022-11-29T16:29:04.709Z,124.75
2022-11-29T16:31:34.206Z,158.10
2022-11-29T16:34:33.814Z,178.63
2022-11-29T16:37:07.353Z,157.02
2022-11-29T16:39:37.535Z,157.90
2022-11-29T16:42:25.818Z,276.00
2022-11-29T16:45:27.173Z,344.05
2022-11-29T16:48:00.307Z,178.15
2022-11-29T16:50:29.440Z,244.88
2022-11-29T16:53:16.550Z,126.65
2022-11-29T16:55:43.513Z,108.10
2022-11-29T16:58:12.333Z,210.32
2022-11-29T17:00:39.247Z,278.30
2022-11-29T17:03:05.928Z,116.93
2022-11-29T17:05:32.940Z,258.63
2022-11-29T17:08:00.535Z,208.88
2022-11-29T17:10:28.796Z,171.80
2022-11-29T17:12:55.711Z,147.82
2022-11-29T17:15:22.827Z,94.55
2022-11-29T17:17:49.838Z,158.35
2022-11-29T17:20:16.949Z,188.77
2022-11-29T17:22:43.920Z,265.80
2022-11-29T17:25:11.059Z,109.82
2022-11-29T17:27:38.075Z,197.65
2022-11-29T17:30:06.483Z,121.65
2022-11-29T17:32:36.255Z,113.00
2022-11-29T17:35:03.429Z,174.68
2022-11-29T17:37:30.992Z,100.35
2022-11-29T17:39:57.791Z,181.20
2022-11-29T17:42:24.791Z,68.10
2022-11-29T17:44:51.858Z,198.00
2022-11-29T17:47:18.990Z,104.28
2022-11-29T17:49:46.329Z,87.68
2022-11-29T17:52:13.373Z,133.60
2022-11-29T17:54:40.432Z,159.38
2022-11-29T17:57:07.527Z,158.95
2022-11-29T17:59:34.175Z,135.57
2022-11-29T18:02:02.236Z,96.43
2022-11-29T18:04:29.049Z,181.35
2022-11-29T18:06:56.075Z,84.85
2022-11-29T18:09:23.970Z,168.82
2022-11-29T18:11:51.069Z,153.32
2022-11-29T18:14:23.717Z,70.70
2022-11-29T18:16:51.351Z,132.30
2022-11-29T18:19:21.250Z,67.03
2022-11-29T18:21:49.480Z,62.90
2022-11-29T18:24:17.139Z,190.55
2022-11-29T18:26:44.245Z,100.82
2022-11-29T18:29:11.206Z,95.88
2022-11-29T18:31:41.282Z,116.80
2022-11-29T18:34:10.115Z,72.82
2022-11-29T18:36:44.977Z,33.60
2022-11-29T18:39:23.021Z,65.68
2022-11-29T18:41:50.778Z,60.35
2022-11-29T18:44:20.145Z,97.20
2022-11-29T18:46:47.615Z,107.25
2022-11-29T18:49:16.652Z,86.03
2022-11-29T18:51:45.355Z,67.80
2022-11-29T18:54:14.007Z,58.80
2022-11-29T18:56:40.963Z,53.53
2022-11-29T18:59:11.319Z,55.90
2022-11-29T19:01:43.134Z,41.83
2022-11-29T19:04:14.597Z,90.78
2022-11-29T19:06:41.802Z,67.85
2022-11-29T19:09:16.390Z,50.35
2022-11-29T19:11:43.127Z,63.05
2022-11-29T19:14:12.073Z,37.92
2022-11-29T19:16:41.269Z,49.27
2022-11-29T19:19:08.219Z,55.88
2022-11-29T19:21:35.322Z,66.40
2022-11-29T19:24:05.371Z,45.15
2022-11-29T19:26:33.464Z,66.30
2022-11-29T19:29:01.324Z,33.40
2022-11-29T19:31:29.302Z,32.47
2022-11-29T19:33:57.149Z,59.85
2022-11-29T19:36:28.023Z,48.05
2022-11-29T19:38:55.304Z,32.85
2022-11-29T19:41:27.289Z,35.70
2022-11-29T19:43:56.431Z,38.55
2022-11-29T19:46:26.116Z,50.75
2022-11-29T19:48:57.867Z,46.53
2022-11-29T19:51:26.302Z,58.88
2022-11-29T19:53:59.060Z,33.13
2022-11-29T19:56:26.562Z,46.28
2022-11-29T19:58:54.183Z,94.00
2022-11-29T20:01:23.261Z,63.20
2022-11-29T20:03:50.496Z,71.55
2022-11-29T20:06:20.274Z,85.43
2022-11-29T20:08:47.599Z,81.60
2022-11-29T20:11:17.360Z,74.07
2022-11-29T20:13:46.564Z,51.75
2022-11-29T20:16:18.191Z,43.92
2022-11-29T20:18:50.735Z,35.88
2022-11-29T20:21:23.807Z,41.25
2022-11-29T20:23:56.137Z,40.33
2022-11-29T20:26:23.815Z,44.70
2022-11-29T20:28:50.667Z,55.45
2022-11-29T20:31:21.224Z,37.40
2022-11-29T20:33:50.014Z,72.95
2022-11-29T20:36:22.768Z,43.00
2022-11-29T20:39:17.799Z,73.60
2022-11-29T20:41:53.679Z,56.17
2022-11-29T20:44:24.303Z,57.45
2022-11-29T20:46:51.155Z,116.13
2022-11-29T20:49:18.445Z,33.42
2022-11-29T20:51:55.316Z,49.15
2022-11-29T20:54:22.092Z,32.03
2022-11-29T20:56:49.029Z,43.58
2022-11-29T20:59:15.760Z,52.00
2022-11-29T21:01:42.894Z,51.33
2022-11-29T21:04:09.874Z,77.95
2022-11-29T21:06:38.349Z,66.60
2022-11-29T21:09:06.228Z,81.28
2022-11-29T21:11:33.093Z,62.55
2022-11-29T21:14:03.776Z,83.05
2022-11-29T21:16:31.757Z,55.78
2022-11-29T21:19:01.602Z,174.18
2022-11-29T21:21:51.454Z,114.75
2022-11-29T21:27:05.109Z,67.75
2022-11-29T21:29:31.991Z,78.10
2022-11-29T21:32:00.793Z,89.20
2022-11-29T21:34:27.755Z,80.88
2022-11-29T21:36:59.655Z,85.55
2022-11-29T21:39:32.503Z,127.40
2022-11-29T21:41:59.460Z,257.45
2022-11-29T21:44:26.504Z,175.98
2022-11-29T21:46:53.645Z,196.77
2022-11-29T21:49:20.623Z,178.68
2022-11-29T21:51:47.709Z,181.68
2022-11-29T21:54:14.705Z,130.48
2022-11-29T21:56:41.743Z,64.32
2022-11-29T21:59:08.369Z,92.18
2022-11-29T22:01:35.149Z,158.65
2022-11-29T22:04:02.164Z,54.05
2022-11-29T22:06:29.349Z,87.43
2022-11-29T22:08:56.904Z,186.25
2022-11-29T22:11:35.237Z,123.88
2022-11-29T22:14:13.411Z,89.38
2022-11-29T22:16:45.337Z,136.60
2022-11-29T22:19:14.051Z,169.98
2022-11-29T22:21:42.311Z,229.02
2022-11-29T22:24:10.429Z,183.77
2022-11-29T22:26:38.649Z,182.50
2022-11-29T22:29:06.422Z,137.57
2022-11-29T22:31:33.417Z,128.50
2022-11-29T22:34:00.348Z,125.20
2022-11-29T22:36:27.337Z,102.85
2022-11-29T22:38:54.436Z,66.15
2022-11-29T22:41:21.389Z,90.47
2022-11-29T22:43:48.461Z,107.57
2022-11-29T22:46:17.134Z,80.90
2022-11-29T22:48:46.099Z,58.20
2022-11-29T22:51:14.302Z,63.05
2022-11-29T22:53:43.103Z,100.70
2022-11-29T22:56:11.430Z,93.55
2022-11-29T22:58:38.109Z,85.10
2022-11-29T23:01:07.971Z,84.00
2022-11-29T23:06:07.903Z,64.35
2022-11-29T23:08:35.831Z,52.20
2022-11-29T23:11:04.754Z,65.53
2022-11-29T23:13:33.921Z,63.47
2022-11-29T23:16:01.514Z,74.28
2022-11-29T23:18:28.507Z,66.78
2022-11-29T23:21:07.195Z,47.67
2022-11-29T23:23:34.883Z,72.70
2022-11-29T23:26:03.167Z,77.70
2022-11-29T23:28:30.413Z,66.15
2022-11-29T23:30:58.801Z,159.73
2022-11-29T23:33:27.162Z,99.68
2022-11-29T23:36:02.656Z,60.22
2022-11-29T23:38:29.638Z,85.10
2022-11-29T23:40:56.656Z,83.80
2022-11-29T23:43:23.940Z,63.50
2022-11-29T23:45:51.106Z,206.82
2022-11-29T23:48:17.990Z,112.38
2022-11-29T23:50:45.775Z,88.40
2022-11-29T23:53:18.175Z,172.45
2022-11-29T23:55:47.501Z,162.10
2022-11-29T23:58:14.826Z,135.07
